createdAt,value
2023-01-05T00:01:31.434Z,97419.72
2023-01-05T00:03:59.622Z,97421.56
2023-01-05T00:06:27.780Z,97415.16
2023-01-05T00:08:57.143Z,97426.94
2023-01-05T00:11:55.267Z,97426.94
2023-01-05T00:14:42.288Z,97423.72
2023-01-05T00:17:29.714Z,97425.81
2023-01-05T00:20:15.347Z,97412.41
2023-01-05T00:22:46.335Z,97404.38
2023-01-05T00:25:17.635Z,97386.38
2023-01-05T00:27:48.079Z,97371.31
2023-01-05T00:30:18.054Z,97375.38
2023-01-05T00:32:46.999Z,97371.91
2023-01-05T00:35:16.177Z,97373.19
2023-01-05T00:37:45.523Z,97373.78
2023-01-05T00:40:17.319Z,97376.19
2023-01-05T00:42:46.172Z,97378.88
2023-01-05T00:45:15.919Z,97368.94
2023-01-05T00:47:45.222Z,97382.09
2023-01-05T00:50:15.227Z,97387.22
2023-01-05T00:52:43.658Z,97386.09
2023-01-05T00:55:15.268Z,97374.00
2023-01-05T00:57:43.673Z,97381.19
2023-01-05T01:00:15.023Z,97380.16
2023-01-05T01:02:43.171Z,97376.38
2023-01-05T01:05:12.257Z,97375.84
2023-01-05T01:07:40.295Z,97363.75
2023-01-05T01:10:09.437Z,97367.78
2023-01-05T01:12:38.958Z,97365.34
2023-01-05T01:15:08.942Z,97359.72
2023-01-05T01:17:37.134Z,97347.97
2023-01-05T01:20:06.481Z,97353.91
2023-01-05T01:22:34.611Z,97358.22
2023-01-05T01:25:02.662Z,97368.94
2023-01-05T01:27:31.192Z,97360.94
2023-01-05T01:30:00.599Z,97347.25
2023-01-05T01:32:28.766Z,97346.47
2023-01-05T01:34:56.841Z,97342.69
2023-01-05T01:37:24.961Z,97332.50
2023-01-05T01:39:55.740Z,97348.59
2023-01-05T01:42:24.034Z,97348.09
2023-01-05T01:45:00.499Z,97358.31
2023-01-05T01:47:39.880Z,97351.59
2023-01-05T01:50:14.396Z,97346.47
2023-01-05T01:52:43.065Z,97335.69
2023-01-05T01:55:11.757Z,97338.38
2023-01-05T01:57:40.084Z,97330.59
2023-01-05T02:00:14.729Z,97331.97
2023-01-05T02:02:46.765Z,97320.66
2023-01-05T02:05:18.634Z,97320.13
2023-01-05T02:07:48.455Z,97300.28
2023-01-05T02:10:18.086Z,97303.75
2023-01-05T02:12:59.560Z,97293.59
2023-01-05T02:15:37.374Z,97287.44
2023-01-05T02:18:21.228Z,97281.53
2023-01-05T02:21:16.903Z,97281.50
2023-01-05T02:24:36.113Z,97268.09
2023-01-05T02:27:28.347Z,97263.25
2023-01-05T02:30:20.028Z,97253.53
2023-01-05T02:32:56.354Z,97248.53
2023-01-05T02:35:30.808Z,97240.66
2023-01-05T02:38:04.460Z,97238.81
2023-01-05T02:40:36.698Z,97228.66
2023-01-05T02:43:06.764Z,97228.94
2023-01-05T02:45:35.396Z,97232.72
2023-01-05T02:48:05.818Z,97223.06
2023-01-05T02:50:37.867Z,97223.59
2023-01-05T02:53:15.440Z,97217.38
2023-01-05T02:55:47.813Z,97210.97
2023-01-05T02:58:19.079Z,97219.25
2023-01-05T03:00:49.539Z,97214.91
2023-01-05T03:03:23.563Z,97200.94
2023-01-05T03:05:56.595Z,97204.69
2023-01-05T03:08:32.416Z,97225.06
2023-01-05T03:11:23.004Z,97225.56
2023-01-05T03:13:54.146Z,97213.69
2023-01-05T03:16:25.926Z,97216.69
2023-01-05T03:19:12.210Z,97230.91
2023-01-05T03:21:58.015Z,97217.94
2023-01-05T03:24:44.181Z,97213.16
2023-01-05T03:27:33.062Z,97221.47
2023-01-05T03:30:19.871Z,97213.44
2023-01-05T03:33:09.457Z,97223.31
2023-01-05T03:35:42.555Z,97212.56
2023-01-05T03:38:18.363Z,97213.09
2023-01-05T03:40:52.177Z,97209.06
2023-01-05T03:43:21.372Z,97208.00
2023-01-05T03:45:54.126Z,97215.22
2023-01-05T03:48:27.286Z,97223.75
2023-01-05T03:50:57.063Z,97211.44
2023-01-05T03:53:26.987Z,97220.34
2023-01-05T03:55:55.416Z,97222.22
2023-01-05T03:58:25.759Z,97218.19
2023-01-05T04:00:54.099Z,97207.19
2023-01-05T04:03:31.080Z,97209.53
2023-01-05T04:06:02.548Z,97202.88
2023-01-05T04:08:32.660Z,97210.63
2023-01-05T04:11:12.553Z,97220.59
2023-01-05T04:13:40.846Z,97212.81
2023-01-05T04:16:09.473Z,97214.16
2023-01-05T04:18:39.777Z,97206.13
2023-01-05T04:21:11.890Z,97201.56
2023-01-05T04:23:40.969Z,97197.00
2023-01-05T04:26:10.203Z,97186.78
2023-01-05T04:28:39.183Z,97188.38
2023-01-05T04:31:07.514Z,97177.41
2023-01-05T04:33:36.475Z,97175.56
2023-01-05T04:36:05.651Z,97176.38
2023-01-05T04:38:35.175Z,97179.94
2023-01-05T04:41:03.511Z,97167.59
2023-01-05T04:43:31.602Z,97166.50
2023-01-05T04:46:02.222Z,97165.72
2023-01-05T04:52:28.121Z,97179.34
2023-01-05T04:54:58.011Z,97174.78
2023-01-05T04:57:27.978Z,97165.38
2023-01-05T04:59:56.663Z,97160.50
2023-01-05T05:02:26.405Z,97171.75
2023-01-05T05:04:55.409Z,97171.75
2023-01-05T05:07:23.879Z,97173.63
2023-01-05T05:09:52.254Z,97179.53
2023-01-05T05:12:22.048Z,97202.88
2023-01-05T05:14:53.037Z,97205.78
2023-01-05T05:17:21.300Z,97200.69
2023-01-05T05:19:51.094Z,97204.09
2023-01-05T05:22:22.020Z,97203.84
2023-01-05T05:24:50.539Z,97208.47
2023-01-05T05:27:18.865Z,97212.47
2023-01-05T05:29:48.397Z,97207.03
2023-01-05T05:32:17.025Z,97214.00
2023-01-05T05:34:45.149Z,97217.50
2023-01-05T05:37:13.555Z,97210.75
2023-01-05T05:39:41.728Z,97216.34
2023-01-05T05:42:09.920Z,97222.78
2023-01-05T05:44:38.043Z,97210.16
2023-01-05T05:47:07.577Z,97219.81
2023-01-05T05:49:35.865Z,97225.19
2023-01-05T05:52:04.254Z,97225.13
2023-01-05T05:54:32.376Z,97221.38
2023-01-05T05:57:00.508Z,97232.38
2023-01-05T05:59:28.685Z,97229.69
2023-01-05T06:01:56.909Z,97240.69
2023-01-05T06:04:26.413Z,97249.34
2023-01-05T06:06:54.495Z,97253.03
2023-01-05T06:09:22.584Z,97249.03
2023-01-05T06:11:50.629Z,97245.53
2023-01-05T06:14:18.945Z,97242.09
2023-01-05T06:16:47.216Z,97247.47
2023-01-05T06:19:15.351Z,97245.06
2023-01-05T06:21:44.795Z,97252.56
2023-01-05T06:24:12.958Z,97245.84
2023-01-05T06:26:41.082Z,97247.78
2023-01-05T06:29:09.196Z,97260.09
2023-01-05T06:31:37.304Z,97256.91
2023-01-05T06:34:05.571Z,97256.91
2023-01-05T06:36:33.800Z,97247.78
2023-01-05T06:39:03.661Z,97254.16
2023-01-05T06:41:31.790Z,97264.34
2023-01-05T06:43:59.947Z,97264.91
2023-01-05T06:46:28.044Z,97262.81
2023-01-05T06:48:57.141Z,97261.81
2023-01-05T06:51:25.303Z,97259.72
2023-01-05T06:53:53.360Z,97272.06
2023-01-05T06:56:22.796Z,97274.47
2023-01-05T06:58:50.885Z,97269.13
2023-01-05T07:01:19.678Z,97275.28
2023-01-05T07:03:47.925Z,97272.03
2023-01-05T07:06:17.006Z,97271.53
2023-01-05T07:08:45.151Z,97273.41
2023-01-05T07:11:13.933Z,97283.06
2023-01-05T07:13:43.668Z,97287.91
2023-01-05T07:16:11.790Z,97277.97
2023-01-05T07:18:39.891Z,97280.06
2023-01-05T07:21:08.071Z,97269.88
2023-01-05T07:23:37.953Z,97285.16
2023-01-05T07:26:06.572Z,97289.47
2023-01-05T07:28:35.124Z,97290.53
2023-01-05T07:31:07.424Z,97294.59
2023-01-05T07:33:39.988Z,97289.78
2023-01-05T07:36:09.528Z,97287.97
2023-01-05T07:38:37.642Z,97296.00
2023-01-05T07:41:05.992Z,97301.09
2023-01-05T07:43:35.677Z,97297.31
2023-01-05T07:46:05.964Z,97306.41
2023-01-05T07:48:34.556Z,97307.97
2023-01-05T07:51:03.416Z,97311.72
2023-01-05T07:53:33.789Z,97324.06
2023-01-05T07:56:03.983Z,97324.06
2023-01-05T07:58:32.163Z,97334.88
2023-01-05T08:01:06.241Z,97333.06
2023-01-05T08:03:34.427Z,97335.00
2023-01-05T08:06:06.016Z,97328.81
2023-01-05T08:08:34.124Z,97341.38
2023-01-05T08:11:04.907Z,97343.53
2023-01-05T08:13:50.688Z,97340.31
2023-01-05T08:16:20.659Z,97357.22
2023-01-05T08:18:48.724Z,97358.53
2023-01-05T08:21:16.819Z,97354.78
2023-01-05T08:23:45.835Z,97357.97
2023-01-05T08:26:16.123Z,97359.56
2023-01-05T08:28:44.754Z,97370.84
2023-01-05T08:31:15.332Z,97360.66
2023-01-05T08:33:44.920Z,97373.53
2023-01-05T08:36:15.179Z,97381.03
2023-01-05T08:38:48.235Z,97391.78
2023-01-05T08:41:20.864Z,97382.41
2023-01-05T08:43:52.956Z,97390.81
2023-01-05T08:46:22.276Z,97398.19
2023-01-05T08:48:53.058Z,97401.16
2023-01-05T08:51:21.409Z,97420.22
2023-01-05T08:53:49.775Z,97421.66
2023-01-05T08:56:18.233Z,97429.16
2023-01-05T08:58:46.592Z,97430.50
2023-01-05T09:01:16.588Z,97446.84
2023-01-05T09:03:44.816Z,97451.66
2023-01-05T09:06:15.182Z,97454.13
2023-01-05T09:08:44.716Z,97458.25
2023-01-05T09:11:14.611Z,97459.34
2023-01-05T09:13:43.505Z,97477.03
2023-01-05T09:16:13.036Z,97481.38
2023-01-05T09:18:42.458Z,97486.72
2023-01-05T09:21:10.893Z,97488.34
2023-01-05T09:23:40.590Z,97503.91
2023-01-05T09:26:11.529Z,97495.88
2023-01-05T09:28:40.180Z,97500.44
2023-01-05T09:31:10.175Z,97506.06
2023-01-05T09:33:38.695Z,97514.13
2023-01-05T09:36:07.894Z,97516.00
2023-01-05T09:38:38.084Z,97510.66
2023-01-05T09:41:17.631Z,97520.03
2023-01-05T09:43:47.846Z,97528.88
2023-01-05T09:46:19.280Z,97523.78
2023-01-05T09:48:54.796Z,97528.34
2023-01-05T09:51:23.300Z,97529.44
2023-01-05T09:53:51.463Z,97529.44
2023-01-05T09:57:07.350Z,97527.53
2023-01-05T09:59:19.220Z,97531.28
2023-01-05T10:01:49.149Z,97531.00
2023-01-05T10:04:22.825Z,97527.50
2023-01-05T10:06:58.831Z,97535.25
2023-01-05T10:09:31.270Z,97540.34
2023-01-05T10:12:21.624Z,97531.78
2023-01-05T10:14:52.996Z,97537.72
2023-01-05T10:20:18.989Z,97530.19
2023-01-05T10:22:55.393Z,97516.75
2023-01-05T10:25:28.943Z,97524.53
2023-01-05T10:28:04.345Z,97532.03
2023-01-05T10:30:44.231Z,97529.06
2023-01-05T10:33:40.232Z,97520.50
2023-01-05T10:36:28.098Z,97516.22
2023-01-05T10:39:13.590Z,97517.84
2023-01-05T10:41:51.835Z,97522.13
2023-01-05T10:44:41.544Z,97512.50
2023-01-05T10:47:10.262Z,97521.03
2023-01-05T10:49:39.331Z,97523.19
2023-01-05T10:52:10.213Z,97527.72
2023-01-05T10:54:41.237Z,97525.03
2023-01-05T10:57:36.552Z,97528.25
2023-01-05T11:00:10.683Z,97532.25
2023-01-05T11:02:40.149Z,97527.41
2023-01-05T11:05:23.936Z,97527.13
2023-01-05T11:07:53.218Z,97518.03
2023-01-05T11:10:27.489Z,97511.88
2023-01-05T11:13:01.527Z,97523.13
2023-01-05T11:15:32.390Z,97518.84
2023-01-05T11:18:00.779Z,97520.16
2023-01-05T11:20:30.127Z,97518.78
2023-01-05T11:22:58.346Z,97522.78
2023-01-05T11:25:31.054Z,97513.41
2023-01-05T11:28:12.838Z,97514.97
2023-01-05T11:30:48.957Z,97518.22
2023-01-05T11:33:25.846Z,97506.91
2023-01-05T11:35:54.324Z,97520.28
2023-01-05T11:38:25.453Z,97511.75
2023-01-05T11:40:56.336Z,97508.53
2023-01-05T11:43:26.011Z,97503.97
2023-01-05T11:45:57.684Z,97506.38
2023-01-05T11:48:28.811Z,97510.41
2023-01-05T11:50:58.278Z,97504.72
2023-01-05T11:53:35.496Z,97499.91
2023-01-05T11:56:06.220Z,97505.81
2023-01-05T11:58:35.431Z,97504.16
2023-01-05T12:01:49.732Z,97503.09
2023-01-05T12:04:35.884Z,97502.84
2023-01-05T12:07:13.831Z,97506.81
2023-01-05T12:09:45.211Z,97509.53
2023-01-05T12:12:24.444Z,97498.25
2023-01-05T12:15:06.292Z,97491.56
2023-01-05T12:17:44.065Z,97500.38
2023-01-05T12:20:27.043Z,97502.00
2023-01-05T12:23:33.710Z,97500.91
2023-01-05T12:26:05.598Z,97500.34
2023-01-05T12:29:45.144Z,97506.25
2023-01-05T12:33:44.503Z,97513.00
2023-01-05T12:35:17.854Z,97510.00
2023-01-05T12:37:56.944Z,97509.00
2023-01-05T12:40:33.957Z,97512.22
2023-01-05T12:43:03.612Z,97517.31
2023-01-05T12:45:47.715Z,97517.59
2023-01-05T12:48:18.899Z,97517.03
2023-01-05T12:50:51.812Z,97520.00
2023-01-05T12:53:30.628Z,97518.69
2023-01-05T12:56:01.238Z,97515.50
2023-01-05T12:58:32.585Z,97521.97
2023-01-05T13:01:02.013Z,97516.31
2023-01-05T13:03:34.849Z,97519.31
2023-01-05T13:06:07.699Z,97508.56
2023-01-05T13:08:39.852Z,97505.06
2023-01-05T13:11:12.307Z,97511.22
2023-01-05T13:13:42.903Z,97508.28
2023-01-05T13:16:15.391Z,97499.41
2023-01-05T13:18:50.026Z,97505.28
2023-01-05T13:21:20.622Z,97507.41
2023-01-05T13:23:51.386Z,97493.47
2023-01-05T13:26:20.603Z,97496.69
2023-01-05T13:28:49.363Z,97507.16
2023-01-05T13:31:48.271Z,97506.84
2023-01-05T13:34:32.091Z,97504.19
2023-01-05T13:37:39.403Z,97497.50
2023-01-05T13:40:22.250Z,97505.81
2023-01-05T13:43:12.302Z,97493.22
2023-01-05T13:46:01.825Z,97503.69
2023-01-05T13:48:45.240Z,97501.03
2023-01-05T13:51:37.606Z,97518.69
2023-01-05T13:54:13.450Z,97513.34
2023-01-05T13:56:41.924Z,97512.84
2023-01-05T13:59:34.763Z,97513.13
2023-01-05T14:02:27.502Z,97513.38
2023-01-05T14:04:55.910Z,97513.66
2023-01-05T14:07:24.323Z,97531.09
2023-01-05T14:09:55.962Z,97520.34
2023-01-05T14:12:55.195Z,97528.41
2023-01-05T14:15:36.498Z,97532.66
2023-01-05T14:18:05.720Z,97534.31
2023-01-05T14:20:36.809Z,97542.63
2023-01-05T14:23:43.748Z,97531.31
2023-01-05T14:26:13.645Z,97539.13
2023-01-05T14:28:44.537Z,97546.09
2023-01-05T14:31:37.866Z,97525.22
2023-01-05T14:34:09.645Z,97542.63
2023-01-05T14:36:40.864Z,97547.75
2023-01-05T14:39:23.416Z,97545.03
2023-01-05T14:42:00.599Z,97548.22
2023-01-05T14:44:32.174Z,97554.97
2023-01-05T14:47:01.313Z,97563.81
2023-01-05T14:49:33.279Z,97562.75
2023-01-05T14:52:03.126Z,97568.63
2023-01-05T14:55:24.279Z,97576.94
2023-01-05T14:58:02.760Z,97582.03
2023-01-05T15:00:38.311Z,97581.00
2023-01-05T15:03:15.001Z,97582.59
2023-01-05T15:05:46.840Z,97575.66
2023-01-05T15:08:23.645Z,97575.91
2023-01-05T15:11:11.067Z,97584.75
2023-01-05T15:14:18.322Z,97584.22
2023-01-05T15:17:14.330Z,97589.06
2023-01-05T15:19:52.744Z,97592.28
2023-01-05T15:22:38.067Z,97604.06
2023-01-05T15:25:32.402Z,97602.19
2023-01-05T15:28:53.547Z,97598.19
2023-01-05T15:31:37.306Z,97605.13
2023-01-05T15:34:15.130Z,97595.50
2023-01-05T15:36:49.420Z,97599.25
2023-01-05T15:39:25.812Z,97604.66
2023-01-05T15:41:55.097Z,97598.75
2023-01-05T15:44:25.511Z,97593.91
2023-01-05T15:46:54.565Z,97608.13
2023-01-05T15:49:25.363Z,97586.44
2023-01-05T15:51:55.300Z,97607.63
2023-01-05T15:54:25.705Z,97612.69
2023-01-05T15:56:54.136Z,97616.97
2023-01-05T15:59:32.456Z,97616.72
2023-01-05T16:02:00.962Z,97621.28
2023-01-05T16:04:29.342Z,97626.09
2023-01-05T16:07:01.249Z,97628.25
2023-01-05T16:09:33.391Z,97629.59
2023-01-05T16:12:05.140Z,97645.69
2023-01-05T16:14:36.760Z,97639.50
2023-01-05T16:17:08.293Z,97644.63
2023-01-05T16:19:41.526Z,97645.94
2023-01-05T16:22:14.929Z,97664.19
2023-01-05T16:24:47.013Z,97651.84
2023-01-05T16:27:15.300Z,97652.91
2023-01-05T16:29:47.136Z,97663.66
2023-01-05T16:32:30.676Z,97670.06
2023-01-05T16:35:21.166Z,97656.94
2023-01-05T16:38:18.490Z,97650.78
2023-01-05T16:41:09.139Z,97666.59
2023-01-05T16:43:39.354Z,97672.75
2023-01-05T16:46:30.867Z,97670.06
2023-01-05T16:49:01.551Z,97675.44
2023-01-05T16:51:41.555Z,97678.66
2023-01-05T16:54:19.026Z,97674.34
2023-01-05T16:56:58.153Z,97683.22
2023-01-05T16:59:44.630Z,97686.69
2023-01-05T17:02:49.023Z,97680.78
2023-01-05T17:05:20.407Z,97682.94
2023-01-05T17:07:50.289Z,97682.66
2023-01-05T17:10:22.658Z,97674.91
2023-01-05T17:12:57.229Z,97682.16
2023-01-05T17:15:29.457Z,97687.50
2023-01-05T17:17:59.131Z,97680.78
2023-01-05T17:20:31.360Z,97686.72
2023-01-05T17:22:59.488Z,97691.78
2023-01-05T17:25:34.325Z,97689.91
2023-01-05T17:28:02.386Z,97693.13
2023-01-05T17:30:30.530Z,97697.94
2023-01-05T17:32:59.941Z,97703.31
2023-01-05T17:35:28.064Z,97698.50
2023-01-05T17:37:56.139Z,97699.56
2023-01-05T17:40:24.487Z,97699.56
2023-01-05T17:42:52.708Z,97702.25
2023-01-05T17:45:21.839Z,97703.84
2023-01-05T17:47:50.549Z,97708.16
2023-01-05T17:50:23.117Z,97708.41
2023-01-05T17:52:51.425Z,97705.19
2023-01-05T17:55:19.811Z,97702.50
2023-01-05T17:57:48.482Z,97698.50
2023-01-05T18:00:21.944Z,97690.47
2023-01-05T18:02:51.316Z,97687.22
2023-01-05T18:05:21.797Z,97696.88
2023-01-05T18:07:50.625Z,97688.28
2023-01-05T18:10:21.686Z,97698.47
2023-01-05T18:12:50.041Z,97699.03
2023-01-05T18:15:18.268Z,97701.69
2023-01-05T18:17:46.416Z,97698.75
2023-01-05T18:20:17.549Z,97696.84
2023-01-05T18:22:49.425Z,97697.69
2023-01-05T18:25:17.955Z,97688.28
2023-01-05T18:27:46.016Z,97693.41
2023-01-05T18:30:14.807Z,97696.06
2023-01-05T18:32:43.479Z,97696.59
2023-01-05T18:35:12.210Z,97694.97
2023-01-05T18:37:41.140Z,97694.72
2023-01-05T18:40:13.000Z,97692.59
2023-01-05T18:42:41.178Z,97692.03
2023-01-05T18:45:19.147Z,97693.91
2023-01-05T18:47:48.126Z,97700.09
2023-01-05T18:50:16.488Z,97687.22
2023-01-05T18:52:44.725Z,97690.72
2023-01-05T18:55:14.704Z,97691.53
2023-01-05T18:57:42.937Z,97686.16
2023-01-05T19:00:12.108Z,97695.28
2023-01-05T19:02:41.216Z,97680.53
2023-01-05T19:05:10.179Z,97685.34
2023-01-05T19:07:39.760Z,97680.81
2023-01-05T19:10:08.690Z,97682.94
2023-01-05T19:12:38.249Z,97677.59
2023-01-05T19:15:07.006Z,97682.38
2023-01-05T19:17:35.131Z,97689.91
2023-01-05T19:20:03.275Z,97693.66
2023-01-05T19:22:31.671Z,97692.31
2023-01-05T19:24:59.811Z,97701.69
2023-01-05T19:27:28.531Z,97703.81
2023-01-05T19:29:58.360Z,97706.25
2023-01-05T19:32:26.537Z,97707.59
2023-01-05T19:34:54.628Z,97701.44
2023-01-05T19:37:22.767Z,97705.22
2023-01-05T19:39:50.898Z,97708.16
2023-01-05T19:42:18.946Z,97707.84
2023-01-05T19:44:47.259Z,97703.06
2023-01-05T19:47:16.761Z,97704.91
2023-01-05T19:49:44.877Z,97700.09
2023-01-05T19:52:13.849Z,97703.06
2023-01-05T19:54:42.909Z,97701.72
2023-01-05T19:57:11.148Z,97709.22
2023-01-05T19:59:39.379Z,97706.00
2023-01-05T20:02:07.895Z,97703.84
2023-01-05T20:04:37.416Z,97702.50
2023-01-05T20:07:10.107Z,97708.94
2023-01-05T20:09:38.705Z,97714.03
2023-01-05T20:12:14.546Z,97707.59
2023-01-05T20:14:43.621Z,97701.44
2023-01-05T20:17:12.724Z,97703.84
2023-01-05T20:19:42.442Z,97706.81
2023-01-05T20:22:13.787Z,97715.66
2023-01-05T20:24:42.834Z,97706.25
2023-01-05T20:27:13.318Z,97713.47
2023-01-05T20:29:41.538Z,97708.13
2023-01-05T20:32:12.717Z,97710.81
2023-01-05T20:34:44.532Z,97715.09
2023-01-05T20:37:12.997Z,97713.47
2023-01-05T20:39:42.263Z,97721.22
2023-01-05T20:42:11.817Z,97717.22
2023-01-05T20:44:41.724Z,97722.03
2023-01-05T20:47:10.467Z,97726.56
2023-01-05T20:49:39.906Z,97731.94
2023-01-05T20:52:10.685Z,97726.31
2023-01-05T20:54:40.231Z,97730.88
2023-01-05T20:57:09.089Z,97734.34
2023-01-05T20:59:40.893Z,97729.81
2023-01-05T21:02:22.481Z,97739.47
2023-01-05T21:04:52.217Z,97729.50
2023-01-05T21:07:22.240Z,97729.25
2023-01-05T21:09:51.656Z,97726.56
2023-01-05T21:12:20.353Z,97725.25
2023-01-05T21:14:48.480Z,97724.19
2023-01-05T21:17:16.653Z,97724.19
2023-01-05T21:19:44.937Z,97725.50
2023-01-05T21:22:13.461Z,97723.66
2023-01-05T21:24:43.037Z,97723.94
2023-01-05T21:27:11.161Z,97724.19
2023-01-05T21:29:39.312Z,97731.97
2023-01-05T21:32:07.677Z,97726.00
2023-01-05T21:34:35.835Z,97728.41
2023-01-05T21:37:04.148Z,97723.63
2023-01-05T21:39:32.527Z,97725.75
2023-01-05T21:42:19.803Z,97732.97
2023-01-05T21:44:48.442Z,97731.13
2023-01-05T21:47:16.943Z,97740.78
2023-01-05T21:49:45.587Z,97742.38
2023-01-05T21:52:30.538Z,97745.63
2023-01-05T21:55:27.597Z,97740.25
2023-01-05T21:57:57.142Z,97741.59
2023-01-05T22:00:25.584Z,97753.09
2023-01-05T22:02:53.831Z,97744.25
2023-01-05T22:05:22.184Z,97745.03
2023-01-05T22:07:50.289Z,97737.50
2023-01-05T22:10:18.892Z,97742.59
2023-01-05T22:12:47.051Z,97739.69
2023-01-05T22:15:16.625Z,97743.97
2023-01-05T22:17:44.696Z,97746.34
2023-01-05T22:20:14.032Z,97744.75
2023-01-05T22:22:42.178Z,97745.81
2023-01-05T22:25:10.908Z,97745.00
2023-01-05T22:27:39.112Z,97744.97
2023-01-05T22:30:08.817Z,97738.00
2023-01-05T22:32:39.036Z,97729.72
2023-01-05T22:35:07.691Z,97732.03
2023-01-05T22:37:35.878Z,97727.22
2023-01-05T22:40:04.085Z,97728.31
2023-01-05T22:42:32.249Z,97726.69
2023-01-05T22:45:00.463Z,97728.34
2023-01-05T22:47:28.636Z,97733.44
2023-01-05T22:49:58.058Z,97736.13
2023-01-05T22:52:26.223Z,97742.28
2023-01-05T22:54:54.278Z,97743.91
2023-01-05T22:57:22.407Z,97743.91
2023-01-05T22:59:50.601Z,97736.34
2023-01-05T23:02:19.211Z,97729.22
2023-01-05T23:04:47.459Z,97728.31
2023-01-05T23:07:20.876Z,97730.78
2023-01-05T23:09:49.366Z,97728.16
2023-01-05T23:12:17.647Z,97725.94
2023-01-05T23:14:45.837Z,97724.38
2023-01-05T23:17:14.007Z,97722.75
2023-01-05T23:19:42.076Z,97722.78
2023-01-05T23:22:11.582Z,97723.22
2023-01-05T23:24:41.205Z,97724.84
2023-01-05T23:27:09.541Z,97715.97
2023-01-05T23:29:38.049Z,97715.41
2023-01-05T23:32:06.418Z,97709.03
2023-01-05T23:34:34.531Z,97710.38
2023-01-05T23:37:03.316Z,97707.22
2023-01-05T23:39:31.443Z,97712.09
2023-01-05T23:42:00.934Z,97711.84
2023-01-05T23:44:29.709Z,97710.56
2023-01-05T23:46:57.885Z,97709.50
2023-01-05T23:49:27.588Z,97701.50
2023-01-05T23:51:55.686Z,97706.84
2023-01-05T23:54:23.781Z,97697.19
2023-01-05T23:56:51.941Z,97691.84
2023-01-05T23:59:21.409Z,97698.25
